sensor_id;sensor_type;location;lat;lon;timestamp;temperature;humidity
17128;DHT22;8679;50.842;4.322;2023-05-07T00:02:21;16.80;99.90
17128;DHT22;8679;50.842;4.322;2023-05-07T00:04:48;16.70;99.90
17128;DHT22;8679;50.842;4.322;2023-05-07T00:07:14;16.70;99.90
17128;DHT22;8679;50.842;4.322;2023-05-07T00:09:40;16.70;99.90
17128;DHT22;8679;50.842;4.322;2023-05-07T00:12:06;16.70;99.90
17128;DHT22;8679;50.842;4.322;2023-05-07T00:14:32;16.70;99.90
17128;DHT22;8679;50.842;4.322;2023-05-07T00:16:57;16.70;99.90
17128;DHT22;8679;50.842;4.322;2023-05-07T00:19:23;16.70;99.90
17128;DHT22;8679;50.842;4.322;2023-05-07T00:21:49;16.70;99.90
17128;DHT22;8679;50.842;4.322;2023-05-07T00:24:15;16.70;99.90
17128;DHT22;8679;50.842;4.322;2023-05-07T00:26:41;16.60;99.90
17128;DHT22;8679;50.842;4.322;2023-05-07T00:29:06;16.70;99.90
17128;DHT22;8679;50.842;4.322;2023-05-07T00:31:32;16.60;99.90
17128;DHT22;8679;50.842;4.322;2023-05-07T00:33:58;16.60;99.90
17128;DHT22;8679;50.842;4.322;2023-05-07T00:36:23;16.70;99.90
17128;DHT22;8679;50.842;4.322;2023-05-07T00:38:49;16.70;99.90
17128;DHT22;8679;50.842;4.322;2023-05-07T00:41:15;16.60;99.90
17128;DHT22;8679;50.842;4.322;2023-05-07T00:43:41;16.60;99.90
17128;DHT22;8679;50.842;4.322;2023-05-07T00:46:06;16.60;99.90
17128;DHT22;8679;50.842;4.322;2023-05-07T00:48:32;16.60;99.90
17128;DHT22;8679;50.842;4.322;2023-05-07T00:50:58;16.60;99.90
17128;DHT22;8679;50.842;4.322;2023-05-07T00:53:24;16.60;99.90
17128;DHT22;8679;50.842;4.322;2023-05-07T00:55:50;16.60;99.90
17128;DHT22;8679;50.842;4.322;2023-05-07T00:58:16;16.50;99.90
17128;DHT22;8679;50.842;4.322;2023-05-07T01:00:42;16.50;99.90
17128;DHT22;8679;50.842;4.322;2023-05-07T01:03:08;16.50;99.90
17128;DHT22;8679;50.842;4.322;2023-05-07T01:05:34;16.50;99.90
17128;DHT22;8679;50.842;4.322;2023-05-07T01:08:01;16.40;99.90
17128;DHT22;8679;50.842;4.322;2023-05-07T01:10:28;16.40;99.90
17128;DHT22;8679;50.842;4.322;2023-05-07T01:12:56;16.50;99.90
17128;DHT22;8679;50.842;4.322;2023-05-07T01:15:22;16.40;99.90
17128;DHT22;8679;50.842;4.322;2023-05-07T01:17:47;16.40;99.90
17128;DHT22;8679;50.842;4.322;2023-05-07T01:20:13;16.50;99.90
17128;DHT22;8679;50.842;4.322;2023-05-07T01:22:40;16.50;99.90
17128;DHT22;8679;50.842;4.322;2023-05-07T01:25:07;16.50;99.90
17128;DHT22;8679;50.842;4.322;2023-05-07T01:27:33;16.40;99.90
17128;DHT22;8679;50.842;4.322;2023-05-07T01:30:01;16.30;99.90
17128;DHT22;8679;50.842;4.322;2023-05-07T01:35:18;16.20;99.90
17128;DHT22;8679;50.842;4.322;2023-05-07T01:37:44;16.20;99.90
17128;DHT22;8679;50.842;4.322;2023-05-07T01:40:10;16.20;99.90
17128;DHT22;8679;50.842;4.322;2023-05-07T01:42:36;16.20;99.90
17128;DHT22;8679;50.842;4.322;2023-05-07T01:45:02;16.20;99.90
17128;DHT22;8679;50.842;4.322;2023-05-07T01:47:29;16.10;99.90
17128;DHT22;8679;50.842;4.322;2023-05-07T01:49:55;16.10;99.90
17128;DHT22;8679;50.842;4.322;2023-05-07T01:52:21;16.00;99.90
17128;DHT22;8679;50.842;4.322;2023-05-07T01:54:47;16.00;99.90
17128;DHT22;8679;50.842;4.322;2023-05-07T01:57:13;16.00;99.90
17128;DHT22;8679;50.842;4.322;2023-05-07T01:59:38;16.00;99.90
17128;DHT22;8679;50.842;4.322;2023-05-07T02:02:04;16.00;99.90
17128;DHT22;8679;50.842;4.322;2023-05-07T02:04:30;16.00;99.90
17128;DHT22;8679;50.842;4.322;2023-05-07T02:06:56;16.00;99.90
17128;DHT22;8679;50.842;4.322;2023-05-07T02:09:21;16.00;99.90
17128;DHT22;8679;50.842;4.322;2023-05-07T02:11:48;16.00;99.90
17128;DHT22;8679;50.842;4.322;2023-05-07T02:14:14;15.90;99.90
17128;DHT22;8679;50.842;4.322;2023-05-07T02:16:41;15.80;99.90
17128;DHT22;8679;50.842;4.322;2023-05-07T02:19:07;15.80;99.90
17128;DHT22;8679;50.842;4.322;2023-05-07T02:21:32;15.70;99.90
17128;DHT22;8679;50.842;4.322;2023-05-07T02:23:58;15.70;99.90
17128;DHT22;8679;50.842;4.322;2023-05-07T02:26:24;15.60;99.90
17128;DHT22;8679;50.842;4.322;2023-05-07T02:28:50;15.60;99.90
17128;DHT22;8679;50.842;4.322;2023-05-07T02:31:16;15.60;99.90
17128;DHT22;8679;50.842;4.322;2023-05-07T02:33:41;15.60;99.90
17128;DHT22;8679;50.842;4.322;2023-05-07T02:36:08;15.60;99.90
17128;DHT22;8679;50.842;4.322;2023-05-07T02:38:34;15.60;99.90
17128;DHT22;8679;50.842;4.322;2023-05-07T02:41:00;15.50;99.90
17128;DHT22;8679;50.842;4.322;2023-05-07T02:43:26;15.50;99.90
17128;DHT22;8679;50.842;4.322;2023-05-07T02:46:08;15.50;99.90
17128;DHT22;8679;50.842;4.322;2023-05-07T02:48:34;15.50;99.90
17128;DHT22;8679;50.842;4.322;2023-05-07T02:51:00;15.50;99.90
17128;DHT22;8679;50.842;4.322;2023-05-07T02:53:26;15.50;99.90
17128;DHT22;8679;50.842;4.322;2023-05-07T02:55:57;15.50;99.90
17128;DHT22;8679;50.842;4.322;2023-05-07T02:58:23;15.40;99.90
17128;DHT22;8679;50.842;4.322;2023-05-07T03:00:49;15.40;99.90
17128;DHT22;8679;50.842;4.322;2023-05-07T03:03:15;15.40;99.90
17128;DHT22;8679;50.842;4.322;2023-05-07T03:05:41;15.30;99.90
17128;DHT22;8679;50.842;4.322;2023-05-07T03:08:07;15.40;99.90
17128;DHT22;8679;50.842;4.322;2023-05-07T03:10:33;15.30;99.90
17128;DHT22;8679;50.842;4.322;2023-05-07T03:12:59;15.40;99.90
17128;DHT22;8679;50.842;4.322;2023-05-07T03:15:25;15.30;99.90
17128;DHT22;8679;50.842;4.322;2023-05-07T03:17:50;15.40;99.90
17128;DHT22;8679;50.842;4.322;2023-05-07T03:20:16;15.30;99.90
17128;DHT22;8679;50.842;4.322;2023-05-07T03:22:42;15.30;99.90
17128;DHT22;8679;50.842;4.322;2023-05-07T03:25:08;15.40;99.90
17128;DHT22;8679;50.842;4.322;2023-05-07T03:27:34;15.40;99.90
17128;DHT22;8679;50.842;4.322;2023-05-07T03:30:00;15.40;99.90
17128;DHT22;8679;50.842;4.322;2023-05-07T03:32:26;15.40;99.90
17128;DHT22;8679;50.842;4.322;2023-05-07T03:34:52;15.50;99.90
17128;DHT22;8679;50.842;4.322;2023-05-07T03:37:18;15.50;99.90
17128;DHT22;8679;50.842;4.322;2023-05-07T03:39:44;15.60;99.90
17128;DHT22;8679;50.842;4.322;2023-05-07T03:42:09;15.60;99.90
17128;DHT22;8679;50.842;4.322;2023-05-07T03:44:35;15.60;99.90
17128;DHT22;8679;50.842;4.322;2023-05-07T03:47:02;15.60;99.90
17128;DHT22;8679;50.842;4.322;2023-05-07T03:49:28;15.60;99.90
17128;DHT22;8679;50.842;4.322;2023-05-07T03:51:53;15.60;99.90
17128;DHT22;8679;50.842;4.322;2023-05-07T03:54:19;15.60;99.90
17128;DHT22;8679;50.842;4.322;2023-05-07T03:56:45;15.60;99.90
17128;DHT22;8679;50.842;4.322;2023-05-07T03:59:12;15.60;99.90
17128;DHT22;8679;50.842;4.322;2023-05-07T04:01:38;15.60;99.90
17128;DHT22;8679;50.842;4.322;2023-05-07T04:04:04;15.60;99.90
17128;DHT22;8679;50.842;4.322;2023-05-07T04:06:30;15.60;99.90
17128;DHT22;8679;50.842;4.322;2023-05-07T04:08:55;15.70;99.90
17128;DHT22;8679;50.842;4.322;2023-05-07T04:11:21;15.60;99.90
17128;DHT22;8679;50.842;4.322;2023-05-07T04:13:47;15.70;99.90
17128;DHT22;8679;50.842;4.322;2023-05-07T04:16:13;15.60;99.90
17128;DHT22;8679;50.842;4.322;2023-05-07T04:18:38;15.60;99.90
17128;DHT22;8679;50.842;4.322;2023-05-07T04:21:05;15.60;99.90
17128;DHT22;8679;50.842;4.322;2023-05-07T04:23:31;15.70;99.90
17128;DHT22;8679;50.842;4.322;2023-05-07T04:25:56;15.60;99.90
17128;DHT22;8679;50.842;4.322;2023-05-07T04:28:23;15.70;99.90
17128;DHT22;8679;50.842;4.322;2023-05-07T04:30:49;15.70;99.90
17128;DHT22;8679;50.842;4.322;2023-05-07T04:33:15;15.60;99.90
17128;DHT22;8679;50.842;4.322;2023-05-07T04:35:43;15.70;99.90
17128;DHT22;8679;50.842;4.322;2023-05-07T04:38:09;15.70;99.90
17128;DHT22;8679;50.842;4.322;2023-05-07T04:40:38;15.70;99.90
17128;DHT22;8679;50.842;4.322;2023-05-07T04:43:04;15.70;99.90
17128;DHT22;8679;50.842;4.322;2023-05-07T04:45:30;15.70;99.90
17128;DHT22;8679;50.842;4.322;2023-05-07T04:47:55;15.70;99.90
17128;DHT22;8679;50.842;4.322;2023-05-07T04:50:21;15.80;99.90
17128;DHT22;8679;50.842;4.322;2023-05-07T04:52:49;15.80;99.90
17128;DHT22;8679;50.842;4.322;2023-05-07T04:55:15;15.80;99.90
17128;DHT22;8679;50.842;4.322;2023-05-07T04:57:41;15.80;99.90
17128;DHT22;8679;50.842;4.322;2023-05-07T05:00:07;15.80;99.90
17128;DHT22;8679;50.842;4.322;2023-05-07T05:02:34;15.90;99.90
17128;DHT22;8679;50.842;4.322;2023-05-07T05:05:01;15.90;99.90
17128;DHT22;8679;50.842;4.322;2023-05-07T05:07:28;16.00;99.90
17128;DHT22;8679;50.842;4.322;2023-05-07T05:09:55;16.00;99.90
17128;DHT22;8679;50.842;4.322;2023-05-07T05:12:21;16.10;99.90
17128;DHT22;8679;50.842;4.322;2023-05-07T05:14:46;16.10;99.90
17128;DHT22;8679;50.842;4.322;2023-05-07T05:17:12;16.20;99.90
17128;DHT22;8679;50.842;4.322;2023-05-07T05:19:38;16.30;99.90
17128;DHT22;8679;50.842;4.322;2023-05-07T05:22:03;16.30;99.90
17128;DHT22;8679;50.842;4.322;2023-05-07T05:24:30;16.40;99.90
17128;DHT22;8679;50.842;4.322;2023-05-07T05:26:56;16.40;99.90
17128;DHT22;8679;50.842;4.322;2023-05-07T05:29:22;16.40;99.90
17128;DHT22;8679;50.842;4.322;2023-05-07T05:31:48;16.50;99.90
17128;DHT22;8679;50.842;4.322;2023-05-07T05:34:13;16.50;99.90
17128;DHT22;8679;50.842;4.322;2023-05-07T05:36:39;16.50;99.90
17128;DHT22;8679;50.842;4.322;2023-05-07T05:39:05;16.60;99.90
17128;DHT22;8679;50.842;4.322;2023-05-07T05:41:31;16.60;99.90
17128;DHT22;8679;50.842;4.322;2023-05-07T05:43:57;16.70;99.90
17128;DHT22;8679;50.842;4.322;2023-05-07T05:46:22;16.70;99.90
17128;DHT22;8679;50.842;4.322;2023-05-07T05:48:48;16.70;99.90
17128;DHT22;8679;50.842;4.322;2023-05-07T05:51:14;16.70;99.90
17128;DHT22;8679;50.842;4.322;2023-05-07T05:53:39;16.70;99.90
17128;DHT22;8679;50.842;4.322;2023-05-07T05:56:05;16.70;99.90
17128;DHT22;8679;50.842;4.322;2023-05-07T05:58:31;16.60;99.90
17128;DHT22;8679;50.842;4.322;2023-05-07T06:00:57;16.60;99.90
17128;DHT22;8679;50.842;4.322;2023-05-07T06:03:24;16.60;99.90
17128;DHT22;8679;50.842;4.322;2023-05-07T06:05:49;16.50;99.90
17128;DHT22;8679;50.842;4.322;2023-05-07T06:08:15;16.50;99.90
17128;DHT22;8679;50.842;4.322;2023-05-07T06:10:41;16.40;99.90
17128;DHT22;8679;50.842;4.322;2023-05-07T06:13:07;16.40;99.90
17128;DHT22;8679;50.842;4.322;2023-05-07T06:15:33;16.40;99.90
17128;DHT22;8679;50.842;4.322;2023-05-07T06:17:58;16.30;99.90
17128;DHT22;8679;50.842;4.322;2023-05-07T06:20:24;16.30;99.90
17128;DHT22;8679;50.842;4.322;2023-05-07T06:22:49;16.40;99.90
17128;DHT22;8679;50.842;4.322;2023-05-07T06:25:15;16.30;99.90
17128;DHT22;8679;50.842;4.322;2023-05-07T06:27:41;16.30;99.90
17128;DHT22;8679;50.842;4.322;2023-05-07T06:30:07;16.20;99.90
17128;DHT22;8679;50.842;4.322;2023-05-07T06:32:33;16.20;99.90
17128;DHT22;8679;50.842;4.322;2023-05-07T06:34:59;16.20;99.90
17128;DHT22;8679;50.842;4.322;2023-05-07T06:37:24;16.20;99.90
17128;DHT22;8679;50.842;4.322;2023-05-07T06:39:50;16.20;99.90
17128;DHT22;8679;50.842;4.322;2023-05-07T06:42:16;16.20;99.90
17128;DHT22;8679;50.842;4.322;2023-05-07T06:44:41;16.20;99.90
17128;DHT22;8679;50.842;4.322;2023-05-07T06:47:07;16.20;99.90
17128;DHT22;8679;50.842;4.322;2023-05-07T06:49:33;16.30;99.90
17128;DHT22;8679;50.842;4.322;2023-05-07T06:51:59;16.20;99.90
17128;DHT22;8679;50.842;4.322;2023-05-07T06:54:25;16.20;99.90
17128;DHT22;8679;50.842;4.322;2023-05-07T06:56:50;16.30;99.90
17128;DHT22;8679;50.842;4.322;2023-05-07T06:59:16;16.20;99.90
17128;DHT22;8679;50.842;4.322;2023-05-07T07:01:42;16.10;99.90
17128;DHT22;8679;50.842;4.322;2023-05-07T07:04:07;16.20;99.90
17128;DHT22;8679;50.842;4.322;2023-05-07T07:06:33;16.10;99.90
17128;DHT22;8679;50.842;4.322;2023-05-07T07:08:59;16.10;99.90
17128;DHT22;8679;50.842;4.322;2023-05-07T07:11:26;16.10;99.90
17128;DHT22;8679;50.842;4.322;2023-05-07T07:13:52;16.00;99.90
17128;DHT22;8679;50.842;4.322;2023-05-07T07:16:20;15.90;99.90
17128;DHT22;8679;50.842;4.322;2023-05-07T07:18:46;15.90;99.90
17128;DHT22;8679;50.842;4.322;2023-05-07T07:21:12;15.90;99.90
17128;DHT22;8679;50.842;4.322;2023-05-07T07:23:37;15.80;99.90
17128;DHT22;8679;50.842;4.322;2023-05-07T07:26:03;15.80;99.90
17128;DHT22;8679;50.842;4.322;2023-05-07T07:28:29;15.80;99.90
17128;DHT22;8679;50.842;4.322;2023-05-07T07:30:54;15.90;99.90
17128;DHT22;8679;50.842;4.322;2023-05-07T07:33:20;16.00;99.90
17128;DHT22;8679;50.842;4.322;2023-05-07T07:35:46;16.00;99.90
17128;DHT22;8679;50.842;4.322;2023-05-07T07:38:11;15.90;99.90
17128;DHT22;8679;50.842;4.322;2023-05-07T07:40:37;15.90;99.90
17128;DHT22;8679;50.842;4.322;2023-05-07T07:43:03;16.10;99.90
17128;DHT22;8679;50.842;4.322;2023-05-07T07:45:28;16.10;99.90
17128;DHT22;8679;50.842;4.322;2023-05-07T07:47:54;16.10;99.90
17128;DHT22;8679;50.842;4.322;2023-05-07T07:50:20;16.20;99.90
17128;DHT22;8679;50.842;4.322;2023-05-07T07:52:46;16.10;99.90
17128;DHT22;8679;50.842;4.322;2023-05-07T07:55:12;16.10;99.90
17128;DHT22;8679;50.842;4.322;2023-05-07T07:57:37;16.10;99.90
17128;DHT22;8679;50.842;4.322;2023-05-07T08:00:03;16.10;99.90
17128;DHT22;8679;50.842;4.322;2023-05-07T08:02:29;16.10;99.90
17128;DHT22;8679;50.842;4.322;2023-05-07T08:04:55;16.20;99.90
17128;DHT22;8679;50.842;4.322;2023-05-07T08:07:21;16.10;99.90
17128;DHT22;8679;50.842;4.322;2023-05-07T08:09:48;16.10;99.90
17128;DHT22;8679;50.842;4.322;2023-05-07T08:12:14;16.10;99.90
17128;DHT22;8679;50.842;4.322;2023-05-07T08:14:40;16.20;99.90
17128;DHT22;8679;50.842;4.322;2023-05-07T08:17:06;16.10;99.90
17128;DHT22;8679;50.842;4.322;2023-05-07T08:19:32;16.10;99.90
17128;DHT22;8679;50.842;4.322;2023-05-07T08:21:57;16.10;99.90
17128;DHT22;8679;50.842;4.322;2023-05-07T08:24:23;16.10;99.90
17128;DHT22;8679;50.842;4.322;2023-05-07T08:26:49;16.10;99.90
17128;DHT22;8679;50.842;4.322;2023-05-07T08:29:15;16.20;99.90
17128;DHT22;8679;50.842;4.322;2023-05-07T08:31:41;16.20;99.90
17128;DHT22;8679;50.842;4.322;2023-05-07T08:34:07;16.20;99.90
17128;DHT22;8679;50.842;4.322;2023-05-07T08:36:33;16.20;99.90
17128;DHT22;8679;50.842;4.322;2023-05-07T08:38:59;16.20;99.90
17128;DHT22;8679;50.842;4.322;2023-05-07T08:41:25;16.20;99.90
17128;DHT22;8679;50.842;4.322;2023-05-07T08:43:51;16.20;99.90
17128;DHT22;8679;50.842;4.322;2023-05-07T08:46:21;16.20;99.90
17128;DHT22;8679;50.842;4.322;2023-05-07T08:48:49;16.20;99.90
17128;DHT22;8679;50.842;4.322;2023-05-07T08:51:20;16.30;99.90
17128;DHT22;8679;50.842;4.322;2023-05-07T08:53:47;16.30;99.90
17128;DHT22;8679;50.842;4.322;2023-05-07T08:56:14;16.30;99.90
17128;DHT22;8679;50.842;4.322;2023-05-07T08:58:42;16.50;99.90
17128;DHT22;8679;50.842;4.322;2023-05-07T09:01:09;16.50;99.90
17128;DHT22;8679;50.842;4.322;2023-05-07T09:03:37;16.60;99.90
17128;DHT22;8679;50.842;4.322;2023-05-07T09:06:03;16.60;99.90
17128;DHT22;8679;50.842;4.322;2023-05-07T09:08:29;16.60;99.90
17128;DHT22;8679;50.842;4.322;2023-05-07T09:10:55;16.70;99.90
17128;DHT22;8679;50.842;4.322;2023-05-07T09:13:21;16.80;99.90
17128;DHT22;8679;50.842;4.322;2023-05-07T09:15:47;16.90;99.90
17128;DHT22;8679;50.842;4.322;2023-05-07T09:18:13;17.00;99.90
17128;DHT22;8679;50.842;4.322;2023-05-07T09:20:40;17.10;99.90
17128;DHT22;8679;50.842;4.322;2023-05-07T09:23:07;17.40;99.90
17128;DHT22;8679;50.842;4.322;2023-05-07T09:25:34;17.40;99.90
17128;DHT22;8679;50.842;4.322;2023-05-07T09:28:01;17.60;99.90
17128;DHT22;8679;50.842;4.322;2023-05-07T09:30:31;17.70;99.90
17128;DHT22;8679;50.842;4.322;2023-05-07T09:33:01;17.80;99.90
17128;DHT22;8679;50.842;4.322;2023-05-07T09:35:28;17.80;99.90
17128;DHT22;8679;50.842;4.322;2023-05-07T09:37:55;17.70;99.90
17128;DHT22;8679;50.842;4.322;2023-05-07T09:40:29;17.80;99.90
17128;DHT22;8679;50.842;4.322;2023-05-07T09:42:55;17.70;99.90
17128;DHT22;8679;50.842;4.322;2023-05-07T09:47:48;17.60;99.90
17128;DHT22;8679;50.842;4.322;2023-05-07T09:50:16;17.60;99.90
17128;DHT22;8679;50.842;4.322;2023-05-07T09:52:44;17.60;99.90
17128;DHT22;8679;50.842;4.322;2023-05-07T09:55:10;17.60;99.90
17128;DHT22;8679;50.842;4.322;2023-05-07T09:57:38;17.60;99.90
17128;DHT22;8679;50.842;4.322;2023-05-07T10:00:06;17.60;99.90
17128;DHT22;8679;50.842;4.322;2023-05-07T10:02:35;17.60;99.90
17128;DHT22;8679;50.842;4.322;2023-05-07T10:05:02;17.70;99.90
17128;DHT22;8679;50.842;4.322;2023-05-07T10:07:29;17.80;99.90
17128;DHT22;8679;50.842;4.322;2023-05-07T10:09:55;17.80;99.90
17128;DHT22;8679;50.842;4.322;2023-05-07T10:12:21;17.70;99.90
17128;DHT22;8679;50.842;4.322;2023-05-07T10:14:47;17.50;99.90
17128;DHT22;8679;50.842;4.322;2023-05-07T10:17:16;17.50;99.90
17128;DHT22;8679;50.842;4.322;2023-05-07T10:19:46;17.40;99.90
17128;DHT22;8679;50.842;4.322;2023-05-07T10:22:12;17.30;99.90
17128;DHT22;8679;50.842;4.322;2023-05-07T10:24:39;17.30;99.90
17128;DHT22;8679;50.842;4.322;2023-05-07T10:27:11;17.40;99.90
17128;DHT22;8679;50.842;4.322;2023-05-07T10:32:45;17.70;99.90
17128;DHT22;8679;50.842;4.322;2023-05-07T10:35:21;17.80;99.90
17128;DHT22;8679;50.842;4.322;2023-05-07T10:37:48;17.80;99.90
17128;DHT22;8679;50.842;4.322;2023-05-07T10:40:14;17.80;99.90
17128;DHT22;8679;50.842;4.322;2023-05-07T10:42:57;17.80;99.90
17128;DHT22;8679;50.842;4.322;2023-05-07T10:45:23;17.80;99.90
17128;DHT22;8679;50.842;4.322;2023-05-07T10:48:12;17.90;99.90
17128;DHT22;8679;50.842;4.322;2023-05-07T10:50:43;18.00;99.90
17128;DHT22;8679;50.842;4.322;2023-05-07T10:55:51;18.00;99.90
17128;DHT22;8679;50.842;4.322;2023-05-07T10:58:36;18.00;99.90
17128;DHT22;8679;50.842;4.322;2023-05-07T11:01:03;18.10;99.90
17128;DHT22;8679;50.842;4.322;2023-05-07T11:03:29;18.10;99.90
17128;DHT22;8679;50.842;4.322;2023-05-07T11:06:11;18.20;99.90
17128;DHT22;8679;50.842;4.322;2023-05-07T11:11:18;18.50;99.90
17128;DHT22;8679;50.842;4.322;2023-05-07T11:13:48;18.40;99.90
17128;DHT22;8679;50.842;4.322;2023-05-07T11:18:51;18.20;99.90
17128;DHT22;8679;50.842;4.322;2023-05-07T11:21:39;18.20;99.90
17128;DHT22;8679;50.842;4.322;2023-05-07T11:24:07;18.20;99.90
17128;DHT22;8679;50.842;4.322;2023-05-07T11:29:18;18.60;99.90
17128;DHT22;8679;50.842;4.322;2023-05-07T11:31:51;18.60;99.90
17128;DHT22;8679;50.842;4.322;2023-05-07T11:34:25;18.70;99.90
17128;DHT22;8679;50.842;4.322;2023-05-07T11:36:51;18.70;99.90
17128;DHT22;8679;50.842;4.322;2023-05-07T11:41:54;18.60;99.90
17128;DHT22;8679;50.842;4.322;2023-05-07T11:44:19;18.60;99.90
17128;DHT22;8679;50.842;4.322;2023-05-07T11:46:45;18.60;99.90
17128;DHT22;8679;50.842;4.322;2023-05-07T11:49:11;18.50;99.90
17128;DHT22;8679;50.842;4.322;2023-05-07T11:51:42;18.60;99.90
17128;DHT22;8679;50.842;4.322;2023-05-07T11:54:08;18.70;99.90
17128;DHT22;8679;50.842;4.322;2023-05-07T11:56:37;18.70;99.90
17128;DHT22;8679;50.842;4.322;2023-05-07T11:59:03;18.70;99.90
17128;DHT22;8679;50.842;4.322;2023-05-07T12:01:29;18.70;99.90
17128;DHT22;8679;50.842;4.322;2023-05-07T12:03:54;18.90;99.90
17128;DHT22;8679;50.842;4.322;2023-05-07T12:06:20;19.10;99.90
17128;DHT22;8679;50.842;4.322;2023-05-07T12:08:46;19.10;99.90
17128;DHT22;8679;50.842;4.322;2023-05-07T12:11:21;19.10;99.90
17128;DHT22;8679;50.842;4.322;2023-05-07T12:13:47;19.30;99.90
17128;DHT22;8679;50.842;4.322;2023-05-07T12:16:13;19.40;99.90
17128;DHT22;8679;50.842;4.322;2023-05-07T12:18:40;19.50;99.90
17128;DHT22;8679;50.842;4.322;2023-05-07T12:21:06;19.60;99.90
17128;DHT22;8679;50.842;4.322;2023-05-07T12:23:36;19.50;99.90
17128;DHT22;8679;50.842;4.322;2023-05-07T12:26:02;19.30;99.90
17128;DHT22;8679;50.842;4.322;2023-05-07T12:28:28;19.30;99.90
17128;DHT22;8679;50.842;4.322;2023-05-07T12:30:54;19.30;99.90
17128;DHT22;8679;50.842;4.322;2023-05-07T12:33:25;19.40;99.90
17128;DHT22;8679;50.842;4.322;2023-05-07T12:35:53;19.50;99.90
17128;DHT22;8679;50.842;4.322;2023-05-07T12:38:19;19.60;99.90
17128;DHT22;8679;50.842;4.322;2023-05-07T12:40:47;19.60;99.90
17128;DHT22;8679;50.842;4.322;2023-05-07T12:43:20;19.60;99.90
17128;DHT22;8679;50.842;4.322;2023-05-07T12:45:50;19.50;99.90
17128;DHT22;8679;50.842;4.322;2023-05-07T12:48:17;19.60;99.90
17128;DHT22;8679;50.842;4.322;2023-05-07T12:50:44;19.60;99.90
17128;DHT22;8679;50.842;4.322;2023-05-07T12:53:11;19.60;99.90
17128;DHT22;8679;50.842;4.322;2023-05-07T12:55:48;19.70;99.90
17128;DHT22;8679;50.842;4.322;2023-05-07T12:58:18;19.60;99.90
17128;DHT22;8679;50.842;4.322;2023-05-07T13:00:46;19.60;99.90
17128;DHT22;8679;50.842;4.322;2023-05-07T13:03:21;19.60;99.90
17128;DHT22;8679;50.842;4.322;2023-05-07T13:05:48;19.70;99.90
17128;DHT22;8679;50.842;4.322;2023-05-07T13:08:26;19.80;99.90
17128;DHT22;8679;50.842;4.322;2023-05-07T13:10:52;19.80;99.90
17128;DHT22;8679;50.842;4.322;2023-05-07T13:13:19;19.80;99.90
17128;DHT22;8679;50.842;4.322;2023-05-07T13:15:46;19.70;99.90
17128;DHT22;8679;50.842;4.322;2023-05-07T13:18:11;19.60;99.90
17128;DHT22;8679;50.842;4.322;2023-05-07T13:20:37;19.50;99.90
17128;DHT22;8679;50.842;4.322;2023-05-07T13:23:03;19.40;99.90
17128;DHT22;8679;50.842;4.322;2023-05-07T13:25:30;19.40;99.90
17128;DHT22;8679;50.842;4.322;2023-05-07T13:27:59;19.30;99.90
17128;DHT22;8679;50.842;4.322;2023-05-07T13:30:25;19.30;99.90
17128;DHT22;8679;50.842;4.322;2023-05-07T13:32:52;19.30;99.90
17128;DHT22;8679;50.842;4.322;2023-05-07T13:35:17;19.20;99.90
17128;DHT22;8679;50.842;4.322;2023-05-07T13:37:43;19.10;99.90
17128;DHT22;8679;50.842;4.322;2023-05-07T13:40:09;19.20;99.90
17128;DHT22;8679;50.842;4.322;2023-05-07T13:42:35;19.20;99.90
17128;DHT22;8679;50.842;4.322;2023-05-07T13:45:00;19.30;99.90
17128;DHT22;8679;50.842;4.322;2023-05-07T13:47:28;19.30;99.90
17128;DHT22;8679;50.842;4.322;2023-05-07T13:49:54;19.30;99.90
17128;DHT22;8679;50.842;4.322;2023-05-07T13:52:19;19.20;99.90
17128;DHT22;8679;50.842;4.322;2023-05-07T13:54:45;19.20;99.90
17128;DHT22;8679;50.842;4.322;2023-05-07T13:57:11;19.20;99.90
17128;DHT22;8679;50.842;4.322;2023-05-07T13:59:37;19.30;99.90
17128;DHT22;8679;50.842;4.322;2023-05-07T14:02:02;19.40;99.90
17128;DHT22;8679;50.842;4.322;2023-05-07T14:04:28;19.30;99.90
17128;DHT22;8679;50.842;4.322;2023-05-07T14:06:54;19.40;99.90
17128;DHT22;8679;50.842;4.322;2023-05-07T14:09:20;19.50;99.90
17128;DHT22;8679;50.842;4.322;2023-05-07T14:11:45;19.40;99.90
17128;DHT22;8679;50.842;4.322;2023-05-07T14:14:13;19.40;99.90
17128;DHT22;8679;50.842;4.322;2023-05-07T14:16:38;19.30;99.90
17128;DHT22;8679;50.842;4.322;2023-05-07T14:19:04;19.40;99.90
17128;DHT22;8679;50.842;4.322;2023-05-07T14:21:30;19.40;99.90
17128;DHT22;8679;50.842;4.322;2023-05-07T14:23:56;19.50;99.90
17128;DHT22;8679;50.842;4.322;2023-05-07T14:26:22;19.40;99.90
17128;DHT22;8679;50.842;4.322;2023-05-07T14:28:48;19.50;99.90
17128;DHT22;8679;50.842;4.322;2023-05-07T14:31:14;19.30;99.90
17128;DHT22;8679;50.842;4.322;2023-05-07T14:33:40;19.30;99.90
17128;DHT22;8679;50.842;4.322;2023-05-07T14:36:06;19.40;99.90
17128;DHT22;8679;50.842;4.322;2023-05-07T14:38:32;19.40;99.90
17128;DHT22;8679;50.842;4.322;2023-05-07T14:40:58;19.30;99.90
17128;DHT22;8679;50.842;4.322;2023-05-07T14:43:24;19.30;99.90
17128;DHT22;8679;50.842;4.322;2023-05-07T14:45:49;19.30;99.90
17128;DHT22;8679;50.842;4.322;2023-05-07T14:48:15;19.40;99.90
17128;DHT22;8679;50.842;4.322;2023-05-07T14:50:42;19.40;99.90
17128;DHT22;8679;50.842;4.322;2023-05-07T14:53:07;19.50;99.90
17128;DHT22;8679;50.842;4.322;2023-05-07T14:55:34;19.40;99.90
17128;DHT22;8679;50.842;4.322;2023-05-07T14:58:00;19.30;99.90
17128;DHT22;8679;50.842;4.322;2023-05-07T15:00:26;19.30;99.90
17128;DHT22;8679;50.842;4.322;2023-05-07T15:02:52;19.30;99.90
17128;DHT22;8679;50.842;4.322;2023-05-07T15:05:17;19.40;99.90
17128;DHT22;8679;50.842;4.322;2023-05-07T15:07:44;19.50;99.90
17128;DHT22;8679;50.842;4.322;2023-05-07T15:10:10;19.40;99.90
17128;DHT22;8679;50.842;4.322;2023-05-07T15:12:36;19.40;99.90
17128;DHT22;8679;50.842;4.322;2023-05-07T15:15:02;19.40;99.90
17128;DHT22;8679;50.842;4.322;2023-05-07T15:17:27;19.50;99.90
17128;DHT22;8679;50.842;4.322;2023-05-07T15:19:53;19.40;99.90
17128;DHT22;8679;50.842;4.322;2023-05-07T15:22:19;19.30;99.90
17128;DHT22;8679;50.842;4.322;2023-05-07T15:24:46;19.30;99.90
17128;DHT22;8679;50.842;4.322;2023-05-07T15:27:12;19.30;99.90
17128;DHT22;8679;50.842;4.322;2023-05-07T15:29:38;19.30;99.90
17128;DHT22;8679;50.842;4.322;2023-05-07T15:32:03;19.30;99.90
17128;DHT22;8679;50.842;4.322;2023-05-07T15:34:29;19.20;99.90
17128;DHT22;8679;50.842;4.322;2023-05-07T15:36:56;19.20;99.90
17128;DHT22;8679;50.842;4.322;2023-05-07T15:39:24;19.10;99.90
17128;DHT22;8679;50.842;4.322;2023-05-07T15:41:50;19.00;99.90
17128;DHT22;8679;50.842;4.322;2023-05-07T15:44:16;19.00;99.90
17128;DHT22;8679;50.842;4.322;2023-05-07T15:46:41;18.90;99.90
17128;DHT22;8679;50.842;4.322;2023-05-07T15:49:07;18.80;99.90
17128;DHT22;8679;50.842;4.322;2023-05-07T15:51:34;18.80;99.90
17128;DHT22;8679;50.842;4.322;2023-05-07T15:54:00;18.80;99.90
17128;DHT22;8679;50.842;4.322;2023-05-07T15:56:25;18.90;99.90
17128;DHT22;8679;50.842;4.322;2023-05-07T15:58:51;19.00;99.90
17128;DHT22;8679;50.842;4.322;2023-05-07T16:01:18;19.00;99.90
17128;DHT22;8679;50.842;4.322;2023-05-07T16:03:44;18.90;99.90